Time;durP1;ratioP1;P1;durP2;ratioP2;P2;SDS_P1;SDS_P2;PMS_P1;PMS_P2;Temp;Humidity;BMP_temperature;BMP_pressure;BME280_temperature;BME280_humidity;BME280_pressure;Samples;Min_cycle;Max_cycle;Signal;HPM_P1;HPM_P2
2022/01/05 00:01:18;;;;;;;1.23;1.13;;;17.70;41.00;;;;;;5050279;28;20214;-67
2022/01/05 00:03:44;;;;;;;1.30;1.20;;;17.70;41.00;;;;;;5053848;28;20286;-67
2022/01/05 00:06:12;;;;;;;1.30;1.10;;;17.70;41.00;;;;;;5035558;28;20226;-67
2022/01/05 00:08:38;;;;;;;1.37;1.27;;;17.70;41.00;;;;;;5052143;28;20559;-67
2022/01/05 00:11:04;;;;;;;1.10;1.00;;;17.70;41.00;;;;;;5069870;28;20447;-67
2022/01/05 00:13:29;;;;;;;1.33;1.23;;;17.70;41.00;;;;;;5068717;28;20228;-67
2022/01/05 00:15:55;;;;;;;1.20;1.10;;;17.70;41.00;;;;;;5069688;28;20224;-67
2022/01/05 00:18:20;;;;;;;1.20;1.10;;;17.70;41.00;;;;;;5069417;28;20300;-67
2022/01/05 00:20:46;;;;;;;1.20;1.10;;;17.70;40.90;;;;;;5052222;28;20217;-67
2022/01/05 00:23:12;;;;;;;1.40;1.30;;;17.70;41.80;;;;;;5069783;28;20565;-67
2022/01/05 00:25:37;;;;;;;1.20;1.10;;;17.60;40.80;;;;;;5051633;28;20550;-67
2022/01/05 00:28:03;;;;;;;1.07;0.97;;;17.60;40.80;;;;;;5051689;28;20222;-67
2022/01/05 00:30:29;;;;;;;1.30;1.20;;;17.70;40.90;;;;;;5069560;28;20222;-67
2022/01/05 00:32:55;;;;;;;1.20;1.10;;;17.70;40.90;;;;;;5069245;28;20232;-67
2022/01/05 00:35:20;;;;;;;1.60;1.33;;;17.60;40.80;;;;;;5069744;28;20292;-67
2022/01/05 00:37:46;;;;;;;1.20;1.10;;;17.70;40.90;;;;;;5070166;28;20217;-67
2022/01/05 00:40:11;;;;;;;1.10;1.00;;;17.60;40.80;;;;;;5069381;28;20266;-67
2022/01/05 00:42:37;;;;;;;1.20;1.10;;;17.70;40.90;;;;;;5051647;28;20305;-67
2022/01/05 00:45:03;;;;;;;1.40;1.30;;;17.70;40.90;;;;;;5069347;28;20265;-67
2022/01/05 00:47:29;;;;;;;1.10;1.00;;;17.70;40.90;;;;;;5067712;28;20301;-67
2022/01/05 00:49:55;;;;;;;1.00;1.00;;;17.70;40.90;;;;;;5069348;28;20497;-67
2022/01/05 00:52:20;;;;;;;1.00;0.90;;;17.70;40.90;;;;;;5068951;28;20213;-67
2022/01/05 00:54:46;;;;;;;1.20;1.10;;;17.60;41.50;;;;;;5069633;28;20731;-67
2022/01/05 00:57:12;;;;;;;1.40;1.30;;;17.70;40.90;;;;;;5069266;28;20210;-67
2022/01/05 00:59:38;;;;;;;1.17;1.07;;;17.60;40.80;;;;;;5069209;28;20217;-67
2022/01/05 01:02:04;;;;;;;1.10;1.00;;;17.60;40.70;;;;;;5066605;28;20701;-67
2022/01/05 01:04:29;;;;;;;1.30;1.20;;;17.70;40.80;;;;;;5067348;28;20523;-67
2022/01/05 01:06:55;;;;;;;1.20;1.10;;;17.70;40.80;;;;;;5069200;28;20421;-67
2022/01/05 01:09:21;;;;;;;1.20;1.10;;;17.60;40.70;;;;;;5069194;28;20600;-67
2022/01/05 01:11:47;;;;;;;1.10;1.00;;;17.60;41.00;;;;;;5035337;28;20735;-67
2022/01/05 01:14:13;;;;;;;1.27;1.17;;;17.60;40.70;;;;;;5068921;28;20254;-67
2022/01/05 01:16:39;;;;;;;1.20;1.10;;;17.60;40.70;;;;;;5069146;28;20221;-67
2022/01/05 01:19:04;;;;;;;1.30;1.20;;;17.70;40.80;;;;;;5068919;28;20447;-67
2022/01/05 01:21:30;;;;;;;1.77;1.20;;;17.60;40.70;;;;;;5050925;28;20213;-67
2022/01/05 01:23:56;;;;;;;1.30;1.20;;;17.60;40.70;;;;;;5068644;28;20229;-67
2022/01/05 01:26:27;;;;;;;1.20;1.10;;;17.60;40.70;;;;;;5068572;28;20224;-67
2022/01/05 01:28:53;;;;;;;1.23;1.13;;;17.70;40.80;;;;;;5070034;28;20217;-67
2022/01/05 01:31:19;;;;;;;1.20;1.07;;;17.60;40.70;;;;;;5052699;28;20520;-67
2022/01/05 01:33:45;;;;;;;1.30;1.10;;;17.60;40.70;;;;;;5073550;28;21078;-67
2022/01/05 01:36:11;;;;;;;1.10;1.00;;;17.60;40.70;;;;;;5073070;28;20413;-67
2022/01/05 01:38:37;;;;;;;1.23;1.13;;;17.60;40.70;;;;;;5072626;28;20460;-67
2022/01/05 01:41:03;;;;;;;1.07;0.97;;;17.60;40.70;;;;;;5072778;28;20222;-67
2022/01/05 01:43:28;;;;;;;1.30;1.20;;;17.60;40.70;;;;;;5072644;28;20218;-67
2022/01/05 01:45:54;;;;;;;1.20;1.10;;;17.60;40.70;;;;;;5072953;28;20225;-67
2022/01/05 01:48:20;;;;;;;1.10;1.00;;;17.60;40.70;;;;;;5072841;28;20218;-67
2022/01/05 01:50:45;;;;;;;1.33;1.13;;;17.60;40.70;;;;;;5073266;28;20213;-67
2022/01/05 01:53:12;;;;;;;1.30;1.20;;;17.60;40.70;;;;;;5072540;28;20576;-67
2022/01/05 01:55:38;;;;;;;1.20;1.10;;;17.60;40.70;;;;;;5072626;28;20225;-67
2022/01/05 01:58:05;;;;;;;1.37;1.20;;;17.60;40.70;;;;;;5072528;28;20425;-67
2022/01/05 02:00:32;;;;;;;1.20;1.10;;;17.70;40.80;;;;;;5072336;28;20210;-67
2022/01/05 02:02:58;;;;;;;1.40;1.30;;;17.60;40.70;;;;;;5072555;28;20475;-67
2022/01/05 02:05:24;;;;;;;1.30;1.20;;;17.60;40.70;;;;;;5072277;28;20437;-67
2022/01/05 02:07:50;;;;;;;1.63;1.53;;;17.60;40.70;;;;;;5072588;28;20221;-67
2022/01/05 02:10:16;;;;;;;1.20;1.07;;;17.60;41.50;;;;;;5072831;28;20479;-67
2022/01/05 02:12:42;;;;;;;1.10;1.00;;;17.60;40.70;;;;;;5072190;28;20413;-67
2022/01/05 02:15:10;;;;;;;1.30;1.20;;;17.60;40.70;;;;;;5054450;28;20504;-67
2022/01/05 02:17:54;;;;;;;1.50;1.40;;;17.60;40.70;;;;;;5072349;28;20218;-66
2022/01/05 02:20:25;;;;;;;1.43;1.10;;;17.60;40.60;;;;;;5071192;28;20442;-67
2022/01/05 02:22:51;;;;;;;1.20;1.10;;;17.60;40.60;;;;;;5071080;28;20428;-67
2022/01/05 02:25:17;;;;;;;1.30;1.20;;;17.60;40.70;;;;;;5070303;28;20474;-67
2022/01/05 02:27:45;;;;;;;1.10;1.00;;;17.60;40.60;;;;;;5072376;28;20808;-67
2022/01/05 02:30:14;;;;;;;1.30;1.20;;;17.60;40.70;;;;;;5071864;28;20222;-66
2022/01/05 02:32:40;;;;;;;1.10;1.00;;;17.60;40.60;;;;;;5072124;28;20822;-67
2022/01/05 02:35:08;;;;;;;1.20;1.10;;;17.60;40.60;;;;;;5071571;28;20443;-67
2022/01/05 02:37:40;;;;;;;1.23;1.10;;;17.60;40.60;;;;;;5071820;28;20291;-67
2022/01/05 02:40:07;;;;;;;1.23;1.13;;;17.60;40.60;;;;;;5070960;28;20446;-67
2022/01/05 02:42:33;;;;;;;1.40;1.20;;;17.60;40.60;;;;;;5071770;28;20454;-67
2022/01/05 02:44:58;;;;;;;1.33;1.23;;;17.60;40.60;;;;;;5071683;28;20744;-67
2022/01/05 02:47:24;;;;;;;1.40;1.30;;;17.60;40.60;;;;;;5071770;28;20218;-67
2022/01/05 02:49:50;;;;;;;1.03;0.93;;;17.60;40.60;;;;;;5071688;28;20222;-67
2022/01/05 02:52:15;;;;;;;1.30;1.20;;;17.60;40.60;;;;;;5070348;28;20360;-67
2022/01/05 02:54:42;;;;;;;1.10;1.00;;;17.60;40.50;;;;;;5071429;28;20260;-67
2022/01/05 02:57:08;;;;;;;1.20;1.10;;;17.60;40.60;;;;;;5071488;28;20571;-67
2022/01/05 02:59:33;;;;;;;1.17;1.07;;;17.60;40.60;;;;;;5071501;28;20486;-67
2022/01/05 03:01:59;;;;;;;1.30;1.20;;;17.60;40.60;;;;;;5071239;28;20626;-67
2022/01/05 03:04:26;;;;;;;1.23;1.00;;;17.60;40.50;;;;;;5071056;28;20276;-67
2022/01/05 03:06:52;;;;;;;1.10;1.00;;;17.60;40.50;;;;;;5071178;28;20245;-67
2022/01/05 03:09:18;;;;;;;1.40;1.30;;;17.60;40.50;;;;;;5071519;28;20425;-67
2022/01/05 03:11:44;;;;;;;1.20;1.10;;;17.60;40.50;;;;;;5071776;28;20453;-67
2022/01/05 03:14:09;;;;;;;1.33;1.23;;;17.60;40.50;;;;;;5053450;28;20895;-67
2022/01/05 03:16:35;;;;;;;1.40;1.30;;;17.60;40.50;;;;;;5071098;28;20220;-67
2022/01/05 03:19:01;;;;;;;1.50;1.30;;;17.60;41.30;;;;;;5071189;28;20221;-67
2022/01/05 03:21:26;;;;;;;1.20;1.10;;;17.60;40.50;;;;;;5071072;28;20214;-67
2022/01/05 03:23:52;;;;;;;1.30;1.10;;;17.60;40.50;;;;;;5070873;28;20225;-67
2022/01/05 03:26:18;;;;;;;2.40;1.27;;;17.60;40.50;;;;;;5070942;28;20218;-67
2022/01/05 03:28:43;;;;;;;1.40;1.30;;;17.60;40.50;;;;;;5071876;28;20593;-67
2022/01/05 03:31:09;;;;;;;1.10;1.00;;;17.60;40.50;;;;;;5070800;28;20237;-67
2022/01/05 03:33:34;;;;;;;1.20;1.10;;;17.60;40.50;;;;;;5070738;28;20253;-67
2022/01/05 03:36:00;;;;;;;2.33;1.30;;;17.60;40.40;;;;;;5070752;28;20574;-67
2022/01/05 03:38:28;;;;;;;1.10;1.00;;;17.60;40.50;;;;;;5070533;28;20217;-67
2022/01/05 03:40:54;;;;;;;1.23;1.10;;;17.60;40.50;;;;;;5068297;28;20314;-67
2022/01/05 03:43:20;;;;;;;1.30;1.20;;;17.60;40.40;;;;;;5070430;28;20917;-67
2022/01/05 03:45:47;;;;;;;1.20;1.10;;;17.60;40.40;;;;;;5068420;28;20492;-67
2022/01/05 03:48:15;;;;;;;1.10;1.00;;;17.60;40.50;;;;;;5070545;28;20563;-67
2022/01/05 03:50:41;;;;;;;1.20;1.10;;;17.60;40.40;;;;;;5070152;28;20818;-67
2022/01/05 03:53:08;;;;;;;1.17;1.07;;;17.60;40.40;;;;;;5069430;28;20449;-67
2022/01/05 03:55:35;;;;;;;1.20;1.10;;;17.60;41.20;;;;;;5067654;28;20425;-67
2022/01/05 03:58:01;;;;;;;1.10;1.00;;;17.60;40.40;;;;;;5070245;28;20534;-67
2022/01/05 04:00:29;;;;;;;1.40;1.30;;;17.60;40.40;;;;;;5070127;28;20471;-67
2022/01/05 04:02:55;;;;;;;1.20;1.10;;;17.60;40.40;;;;;;5070169;28;20933;-67
2022/01/05 04:05:21;;;;;;;1.33;1.23;;;17.60;40.40;;;;;;5069831;28;20437;-67
2022/01/05 04:07:47;;;;;;;1.10;1.00;;;17.60;40.40;;;;;;5070376;28;20478;-67
2022/01/05 04:10:12;;;;;;;1.10;1.00;;;17.60;40.40;;;;;;5070155;28;20655;-67
2022/01/05 04:12:38;;;;;;;1.30;1.20;;;17.60;40.40;;;;;;5069968;28;20264;-67
2022/01/05 04:15:04;;;;;;;1.30;1.20;;;17.60;41.20;;;;;;5069121;28;20229;-67
2022/01/05 04:17:30;;;;;;;1.20;1.10;;;17.60;40.40;;;;;;5067802;28;20221;-67
2022/01/05 04:19:55;;;;;;;1.20;1.10;;;17.60;40.30;;;;;;5068997;28;20773;-67
2022/01/05 04:22:21;;;;;;;1.20;1.03;;;17.60;40.30;;;;;;5051686;28;20233;-67
2022/01/05 04:24:47;;;;;;;1.30;1.20;;;17.60;40.30;;;;;;5070187;28;20221;-67
2022/01/05 04:27:12;;;;;;;1.10;1.00;;;17.60;40.40;;;;;;5069570;28;20610;-67
2022/01/05 04:29:38;;;;;;;1.30;1.20;;;17.60;40.30;;;;;;5069862;28;20218;-67
2022/01/05 04:32:04;;;;;;;1.30;1.10;;;17.60;40.30;;;;;;5069654;28;20213;-67
2022/01/05 04:34:29;;;;;;;1.10;1.00;;;17.60;40.30;;;;;;5068311;28;20666;-67
2022/01/05 04:36:55;;;;;;;1.40;1.30;;;17.60;40.30;;;;;;5069580;28;20248;-67
2022/01/05 04:39:21;;;;;;;1.10;1.00;;;17.60;40.30;;;;;;5069675;28;20223;-67
2022/01/05 04:41:46;;;;;;;1.10;1.00;;;17.60;40.20;;;;;;5069879;28;20722;-67
2022/01/05 04:44:12;;;;;;;1.20;1.10;;;17.60;40.20;;;;;;5069602;28;20214;-67
2022/01/05 04:46:37;;;;;;;1.27;1.17;;;17.60;40.30;;;;;;5069440;28;20336;-67
2022/01/05 04:49:04;;;;;;;1.73;1.00;;;17.60;40.30;;;;;;5069526;28;20272;-67
2022/01/05 04:51:30;;;;;;;1.20;1.10;;;17.60;40.30;;;;;;5068370;28;20300;-67
2022/01/05 04:53:55;;;;;;;1.20;1.10;;;17.60;40.20;;;;;;5069238;28;20870;-67
2022/01/05 04:56:21;;;;;;;1.40;1.20;;;17.60;40.20;;;;;;5069203;28;20214;-67
2022/01/05 04:58:47;;;;;;;1.10;1.00;;;17.60;40.20;;;;;;5069895;28;20213;-67
2022/01/05 05:01:13;;;;;;;1.00;0.90;;;17.60;40.20;;;;;;5069520;28;20643;-67
2022/01/05 05:03:39;;;;;;;1.20;1.10;;;17.60;40.20;;;;;;5068865;28;20982;-67
2022/01/05 05:06:04;;;;;;;1.23;0.97;;;17.60;40.20;;;;;;5069362;28;20413;-67
2022/01/05 05:08:30;;;;;;;0.93;0.90;;;17.60;40.10;;;;;;5051336;28;20214;-67
2022/01/05 05:10:56;;;;;;;1.00;0.90;;;17.60;40.10;;;;;;5069081;28;20209;-67
2022/01/05 05:13:21;;;;;;;1.10;1.00;;;17.60;40.10;;;;;;5068952;28;20237;-67
2022/01/05 05:15:47;;;;;;;1.37;1.27;;;17.60;40.20;;;;;;5069588;28;20217;-67
2022/01/05 05:18:12;;;;;;;1.20;1.00;;;17.60;40.10;;;;;;5069676;28;20647;-67
2022/01/05 05:20:38;;;;;;;1.10;1.00;;;17.60;40.10;;;;;;5069274;28;20209;-67
2022/01/05 05:23:04;;;;;;;1.10;1.00;;;17.60;40.10;;;;;;5069140;28;20727;-67
2022/01/05 05:25:30;;;;;;;0.93;0.87;;;17.60;40.10;;;;;;5065900;28;20552;-67
2022/01/05 05:27:55;;;;;;;1.00;0.90;;;17.60;40.10;;;;;;5068991;28;20420;-67
2022/01/05 05:30:21;;;;;;;1.30;1.10;;;17.60;40.10;;;;;;5069142;28;20301;-67
2022/01/05 05:32:47;;;;;;;1.10;1.00;;;17.60;40.10;;;;;;5051781;28;20213;-67
2022/01/05 05:35:14;;;;;;;1.03;0.93;;;17.60;40.00;;;;;;5051467;28;20217;-67
2022/01/05 05:37:40;;;;;;;1.03;0.93;;;17.60;40.00;;;;;;5068952;28;20221;-67
2022/01/05 05:40:06;;;;;;;1.20;1.10;;;17.60;40.10;;;;;;5050873;28;20786;-67
2022/01/05 05:42:32;;;;;;;1.20;1.10;;;17.60;40.00;;;;;;5068979;28;20213;-67
2022/01/05 05:44:57;;;;;;;1.47;1.10;;;17.60;39.90;;;;;;5068997;28;20438;-67
2022/01/05 05:47:23;;;;;;;1.20;1.10;;;17.60;39.90;;;;;;5068841;28;20297;-67
2022/01/05 05:49:49;;;;;;;1.20;1.10;;;17.60;40.00;;;;;;5068909;28;20218;-67
2022/01/05 05:52:15;;;;;;;1.03;0.90;;;17.60;39.90;;;;;;5069334;28;20561;-67
2022/01/05 05:54:41;;;;;;;0.93;0.83;;;17.60;39.90;;;;;;5068922;28;20222;-67
2022/01/05 05:57:07;;;;;;;1.23;1.13;;;17.60;39.80;;;;;;5068539;28;20465;-67
2022/01/05 05:59:33;;;;;;;1.47;0.93;;;17.60;39.80;;;;;;5068838;28;20221;-67
2022/01/05 06:01:59;;;;;;;0.90;0.90;;;17.60;39.80;;;;;;5068693;28;20221;-67
2022/01/05 06:04:25;;;;;;;1.20;1.00;;;17.60;39.80;;;;;;5068874;28;20499;-67
2022/01/05 06:06:51;;;;;;;1.20;1.10;;;17.60;39.80;;;;;;5068489;28;20304;-67
2022/01/05 06:09:16;;;;;;;1.07;0.97;;;17.60;39.70;;;;;;5069228;28;20561;-67
2022/01/05 06:11:42;;;;;;;1.20;1.10;;;17.60;39.70;;;;;;5068827;28;20216;-67
2022/01/05 06:14:07;;;;;;;1.30;1.20;;;17.60;39.70;;;;;;5068642;28;20237;-67
2022/01/05 06:16:33;;;;;;;1.20;1.10;;;17.60;39.70;;;;;;5071717;28;20214;-67
2022/01/05 06:18:59;;;;;;;1.37;1.20;;;17.60;39.70;;;;;;5072394;28;20222;-67
2022/01/05 06:21:24;;;;;;;1.20;0.90;;;17.60;39.70;;;;;;5071934;28;20222;-67
2022/01/05 06:23:50;;;;;;;1.00;0.90;;;17.60;39.70;;;;;;5072122;28;20304;-67
2022/01/05 06:26:15;;;;;;;1.30;1.10;;;17.50;39.60;;;;;;5072541;28;20225;-67
2022/01/05 06:28:41;;;;;;;1.00;0.90;;;17.60;39.70;;;;;;5072126;28;20226;-67
2022/01/05 06:31:07;;;;;;;1.10;1.00;;;17.60;39.70;;;;;;5071775;28;20226;-67
2022/01/05 06:33:32;;;;;;;1.47;0.90;;;17.60;39.70;;;;;;5071920;28;20226;-67
2022/01/05 06:35:59;;;;;;;1.30;1.10;;;17.60;39.60;;;;;;5069037;28;20225;-67
2022/01/05 06:38:25;;;;;;;1.13;1.03;;;17.60;39.60;;;;;;5071936;28;20674;-67
2022/01/05 06:40:50;;;;;;;2.47;1.17;;;17.60;40.40;;;;;;5071419;28;20442;-67
2022/01/05 06:43:16;;;;;;;1.07;0.97;;;17.60;39.60;;;;;;5072285;28;20228;-67
2022/01/05 06:45:41;;;;;;;0.90;0.80;;;17.60;39.60;;;;;;5071705;28;20233;-67
2022/01/05 06:48:07;;;;;;;1.10;1.00;;;17.60;39.60;;;;;;5071377;28;20233;-67
2022/01/05 06:50:33;;;;;;;1.10;1.00;;;17.60;40.30;;;;;;5071927;28;20209;-67
2022/01/05 06:52:58;;;;;;;1.20;1.10;;;17.50;39.50;;;;;;5071496;28;20723;-67
2022/01/05 06:55:25;;;;;;;1.23;1.13;;;17.60;39.60;;;;;;5071712;28;20214;-67
2022/01/05 06:57:51;;;;;;;2.30;1.27;;;17.60;40.30;;;;;;5068305;28;20305;-67
2022/01/05 07:00:18;;;;;;;2.03;1.10;;;17.60;39.50;;;;;;5072026;28;20440;-67
2022/01/05 07:02:44;;;;;;;1.20;1.10;;;17.60;39.50;;;;;;5071447;28;20424;-67
2022/01/05 07:05:11;;;;;;;1.03;0.90;;;17.60;39.50;;;;;;5070991;28;20458;-67
2022/01/05 07:07:37;;;;;;;1.00;0.90;;;17.60;39.50;;;;;;5071357;28;20421;-67
2022/01/05 07:10:08;;;;;;;3.90;1.10;;;17.60;39.50;;;;;;5070180;28;20427;-67
2022/01/05 07:12:34;;;;;;;0.90;0.90;;;17.60;39.50;;;;;;5068424;28;20479;-67
2022/01/05 07:15:00;;;;;;;2.30;1.00;;;17.60;39.50;;;;;;5070967;28;20429;-67
2022/01/05 07:17:26;;;;;;;1.17;1.00;;;17.50;39.40;;;;;;5071096;28;20429;-67
2022/01/05 07:19:51;;;;;;;1.00;0.90;;;17.60;39.50;;;;;;5053180;28;20228;-67
2022/01/05 07:22:17;;;;;;;1.20;1.07;;;17.60;39.50;;;;;;5071279;28;20221;-67
2022/01/05 07:24:42;;;;;;;1.20;0.90;;;17.60;39.40;;;;;;5051605;28;20221;-67
2022/01/05 07:27:08;;;;;;;1.70;1.00;;;17.50;39.30;;;;;;5070484;28;20590;-67
2022/01/05 07:29:34;;;;;;;1.20;0.90;;;17.60;39.40;;;;;;5070824;28;20222;-67
2022/01/05 07:32:00;;;;;;;1.90;0.90;;;17.60;39.40;;;;;;5070552;28;20435;-67
2022/01/05 07:34:25;;;;;;;1.30;1.03;;;17.60;39.40;;;;;;5070724;28;20691;-67
2022/01/05 07:36:51;;;;;;;0.80;0.80;;;17.60;39.40;;;;;;5070583;28;20577;-67
2022/01/05 07:39:16;;;;;;;1.43;1.10;;;17.50;39.30;;;;;;5071150;28;20674;-67
2022/01/05 07:41:42;;;;;;;1.17;1.00;;;17.60;39.40;;;;;;5070693;28;20295;-67
2022/01/05 07:44:08;;;;;;;1.10;1.00;;;17.50;39.30;;;;;;5070786;28;25316;-67
2022/01/05 07:46:34;;;;;;;1.20;1.10;;;17.60;39.40;;;;;;5070217;28;20241;-67
2022/01/05 07:49:02;;;;;;;0.87;0.87;;;17.50;39.30;;;;;;5070174;28;20226;-67
2022/01/05 07:51:28;;;;;;;1.53;1.10;;;17.60;39.30;;;;;;5070451;28;20474;-67
2022/01/05 07:53:53;;;;;;;1.10;1.00;;;17.50;39.30;;;;;;5070116;28;21056;-67
2022/01/05 07:56:19;;;;;;;1.77;1.10;;;17.50;39.30;;;;;;5070354;28;20488;-67
2022/01/05 07:58:45;;;;;;;1.10;1.00;;;17.50;39.20;;;;;;5070957;28;20262;-67
2022/01/05 08:01:11;;;;;;;2.10;1.03;;;17.50;39.20;;;;;;5070257;28;20232;-67
2022/01/05 08:03:37;;;;;;;1.23;1.10;;;17.50;39.20;;;;;;5069985;28;20796;-67
2022/01/05 08:06:04;;;;;;;1.53;1.27;;;17.50;39.20;;;;;;5069744;28;20670;-67
2022/01/05 08:08:30;;;;;;;1.77;1.33;;;17.50;39.20;;;;;;5068255;28;20446;-67
2022/01/05 08:10:56;;;;;;;1.43;1.00;;;17.50;39.10;;;;;;5069978;28;20801;-67
2022/01/05 08:13:24;;;;;;;1.60;1.00;;;17.50;39.10;;;;;;5070177;28;20449;-67
2022/01/05 08:15:52;;;;;;;1.10;1.00;;;17.50;39.10;;;;;;5068444;28;20218;-67
2022/01/05 08:18:19;;;;;;;0.80;0.80;;;17.50;39.10;;;;;;5070650;28;20493;-67
2022/01/05 08:20:45;;;;;;;1.10;1.00;;;17.50;39.10;;;;;;5069686;28;20439;-67
2022/01/05 08:23:18;;;;;;;0.90;0.80;;;17.50;39.10;;;;;;5069399;28;20424;-67
2022/01/05 08:25:44;;;;;;;1.20;1.10;;;17.50;39.10;;;;;;5069986;28;20836;-67
2022/01/05 08:28:11;;;;;;;1.13;1.03;;;17.50;39.10;;;;;;5069641;28;20441;-67
2022/01/05 08:30:37;;;;;;;0.90;0.83;;;17.50;39.00;;;;;;5069784;28;20206;-67
2022/01/05 08:33:04;;;;;;;1.10;0.97;;;17.50;39.10;;;;;;5069527;28;20449;-67
2022/01/05 08:35:30;;;;;;;1.27;1.10;;;17.50;39.10;;;;;;5069628;28;20443;-67
2022/01/05 08:37:56;;;;;;;1.10;1.00;;;17.60;39.10;;;;;;5068997;28;20453;-67
2022/01/05 08:40:23;;;;;;;1.57;1.00;;;17.50;39.00;;;;;;5051620;28;20434;-67
2022/01/05 08:42:50;;;;;;;1.67;1.00;;;17.50;39.00;;;;;;5068163;28;20478;-67
2022/01/05 08:45:17;;;;;;;1.20;0.80;;;17.50;39.00;;;;;;5069870;28;20428;-67
2022/01/05 08:47:47;;;;;;;1.20;1.10;;;17.50;39.00;;;;;;5069503;28;20488;-67
2022/01/05 08:50:18;;;;;;;1.00;0.80;;;17.50;39.00;;;;;;5069503;28;20488;-67
2022/01/05 08:52:44;;;;;;;1.00;0.90;;;17.50;39.00;;;;;;5066968;28;20417;-67
2022/01/05 08:55:11;;;;;;;1.00;0.90;;;17.50;39.00;;;;;;5069185;28;20463;-67
2022/01/05 08:57:37;;;;;;;1.00;0.90;;;17.50;39.00;;;;;;5068008;28;20449;-67
2022/01/05 09:00:05;;;;;;;1.30;1.13;;;17.50;39.00;;;;;;5069093;28;20446;-67
2022/01/05 09:02:31;;;;;;;0.90;0.77;;;17.50;39.00;;;;;;5068068;28;20446;-67
2022/01/05 09:04:56;;;;;;;1.10;0.90;;;17.50;39.00;;;;;;5069197;28;20549;-67
2022/01/05 09:07:22;;;;;;;1.37;1.03;;;17.50;39.00;;;;;;5069265;28;20244;-67
2022/01/05 09:09:48;;;;;;;1.10;1.00;;;17.50;39.00;;;;;;5069872;28;20210;-67
2022/01/05 09:12:14;;;;;;;0.97;0.87;;;17.50;39.00;;;;;;5066271;28;20712;-67
2022/01/05 09:14:40;;;;;;;1.40;1.30;;;17.50;39.00;;;;;;5069183;28;20225;-67
2022/01/05 09:17:07;;;;;;;0.90;0.80;;;17.50;39.00;;;;;;5069094;28;20260;-67
2022/01/05 09:19:33;;;;;;;1.27;1.17;;;17.50;39.00;;;;;;5069136;28;20450;-67
2022/01/05 09:21:59;;;;;;;1.20;1.00;;;17.50;38.90;;;;;;5068976;28;20425;-67
2022/01/05 09:24:25;;;;;;;1.20;1.10;;;17.50;38.90;;;;;;5069109;28;20448;-67
2022/01/05 09:26:51;;;;;;;1.10;1.00;;;17.50;38.90;;;;;;5068876;28;20222;-67
2022/01/05 09:29:18;;;;;;;1.13;0.90;;;17.50;38.80;;;;;;5069395;28;20666;-67
2022/01/05 09:31:44;;;;;;;1.27;1.17;;;17.50;38.90;;;;;;5069240;28;20431;-67
2022/01/05 09:34:10;;;;;;;1.00;0.90;;;17.50;38.90;;;;;;5068902;28;20445;-67
2022/01/05 09:36:41;;;;;;;1.30;1.00;;;17.50;38.80;;;;;;5069115;28;20766;-67
2022/01/05 09:42:00;;;;;;;1.20;1.10;;;17.50;38.90;;;;;;5068670;28;20428;-67
2022/01/05 09:44:32;;;;;;;1.03;0.93;;;17.50;38.90;;;;;;5068231;28;20822;-67
2022/01/05 09:47:21;;;;;;;1.03;0.93;;;17.50;38.80;;;;;;5068470;28;20433;-67
2022/01/05 09:50:04;;;;;;;1.00;0.80;;;17.50;38.90;;;;;;5069489;28;20446;-67
2022/01/05 09:52:33;;;;;;;2.00;1.13;;;17.50;38.80;;;;;;5072323;28;20420;-67
2022/01/05 09:54:59;;;;;;;1.17;0.90;;;17.50;38.90;;;;;;5072245;28;20948;-67
2022/01/05 09:57:27;;;;;;;1.00;0.90;;;17.50;38.90;;;;;;5072667;28;20579;-67
2022/01/05 09:59:53;;;;;;;0.97;0.87;;;17.50;38.90;;;;;;5072553;28;20450;-67
2022/01/05 10:02:19;;;;;;;1.00;0.90;;;17.50;38.80;;;;;;5073063;28;20450;-67
2022/01/05 10:04:46;;;;;;;1.10;0.90;;;17.50;38.90;;;;;;5072456;28;20459;-67
2022/01/05 10:07:13;;;;;;;1.20;0.90;;;17.50;38.80;;;;;;5072183;28;20760;-67
2022/01/05 10:09:40;;;;;;;1.20;1.00;;;17.50;38.80;;;;;;5072336;28;20579;-67
2022/01/05 10:12:06;;;;;;;1.13;0.80;;;17.50;38.80;;;;;;5072111;28;20447;-67
2022/01/05 10:14:32;;;;;;;1.03;0.93;;;17.50;38.80;;;;;;5054226;28;20462;-67
2022/01/05 10:17:03;;;;;;;1.00;0.90;;;17.50;38.70;;;;;;5070261;28;20440;-67
2022/01/05 10:19:28;;;;;;;1.47;0.90;;;17.50;38.70;;;;;;5072158;28;20244;-67
2022/01/05 10:21:56;;;;;;;1.10;0.90;;;17.50;38.70;;;;;;5072007;28;20913;-67
2022/01/05 10:24:47;;;;;;;1.07;0.97;;;17.50;38.70;;;;;;5072163;28;20217;-67
2022/01/05 10:27:20;;;;;;;1.00;0.90;;;17.50;38.70;;;;;;5060045;28;20939;-67
2022/01/05 10:30:00;;;;;;;0.97;0.83;;;17.50;38.70;;;;;;5070328;28;20425;-67
2022/01/05 10:32:32;;;;;;;1.00;0.90;;;17.50;38.70;;;;;;5053227;28;20413;-67
2022/01/05 10:35:03;;;;;;;1.20;1.10;;;17.50;38.60;;;;;;5071088;28;20458;-67
2022/01/05 10:37:29;;;;;;;1.27;1.10;;;17.50;38.60;;;;;;5072039;28;20450;-67
2022/01/05 10:40:09;;;;;;;1.20;0.87;;;17.50;38.70;;;;;;5071790;28;20417;-67
2022/01/05 10:42:36;;;;;;;1.13;1.03;;;17.50;38.60;;;;;;5069819;28;20243;-67
2022/01/05 10:45:05;;;;;;;1.40;1.00;;;17.50;38.60;;;;;;5071624;28;20426;-67
2022/01/05 10:47:32;;;;;;;1.00;0.90;;;17.50;38.60;;;;;;5069801;28;20443;-67
2022/01/05 10:49:57;;;;;;;0.93;0.70;;;17.50;38.60;;;;;;5071547;28;20931;-67
2022/01/05 10:52:27;;;;;;;0.70;0.70;;;17.50;38.60;;;;;;5053059;28;20416;-67
2022/01/05 10:54:54;;;;;;;1.00;0.90;;;17.50;38.60;;;;;;5069148;28;20226;-67
2022/01/05 10:57:21;;;;;;;1.87;1.00;;;17.50;38.60;;;;;;5071395;28;20438;-67
2022/01/05 10:59:50;;;;;;;0.97;0.90;;;17.50;38.60;;;;;;5072022;28;20425;-67
2022/01/05 11:02:33;;;;;;;1.00;0.90;;;17.50;38.60;;;;;;5070737;28;20508;-67
2022/01/05 11:05:12;;;;;;;1.77;0.90;;;17.50;38.60;;;;;;5068960;28;20481;-67
2022/01/05 11:07:39;;;;;;;1.77;1.00;;;17.50;38.60;;;;;;5068496;28;20447;-67
2022/01/05 11:10:20;;;;;;;1.13;1.00;;;17.50;38.60;;;;;;5071263;28;20504;-67
2022/01/05 11:12:53;;;;;;;1.07;0.97;;;17.50;38.50;;;;;;5071499;28;20443;-67
2022/01/05 11:15:28;;;;;;;1.00;0.80;;;17.50;38.60;;;;;;5069743;28;20530;-67
2022/01/05 11:18:17;;;;;;;1.13;1.03;;;17.50;38.50;;;;;;5070807;28;20464;-67
2022/01/05 11:20:52;;;;;;;1.60;1.10;;;17.50;38.60;;;;;;5070575;28;20454;-67
2022/01/05 11:23:23;;;;;;;1.10;1.00;;;17.50;38.60;;;;;;5051337;28;20511;-67
2022/01/05 11:25:50;;;;;;;1.10;0.90;;;17.50;38.50;;;;;;5069352;28;20924;-67
2022/01/05 11:28:17;;;;;;;1.10;1.00;;;17.50;38.50;;;;;;5070922;28;20434;-67
2022/01/05 11:30:45;;;;;;;0.77;0.70;;;17.50;38.50;;;;;;5070747;28;20793;-67
2022/01/05 11:33:11;;;;;;;0.97;0.87;;;17.50;38.50;;;;;;5067920;28;20422;-67
2022/01/05 11:35:37;;;;;;;0.80;0.80;;;17.50;38.50;;;;;;5070908;28;20433;-67
2022/01/05 11:38:05;;;;;;;1.10;0.97;;;17.50;38.50;;;;;;5070440;28;20475;-67
2022/01/05 11:40:33;;;;;;;1.10;1.00;;;17.50;38.50;;;;;;5068824;28;20778;-67
2022/01/05 11:43:06;;;;;;;1.03;0.93;;;17.50;38.50;;;;;;5070607;28;20453;-67
2022/01/05 11:45:35;;;;;;;1.17;0.90;;;17.50;39.20;;;;;;5067369;28;20442;-67
2022/01/05 11:48:15;;;;;;;1.20;1.10;;;17.50;38.40;;;;;;5052484;28;20957;-67
2022/01/05 11:50:50;;;;;;;1.10;1.00;;;17.50;38.40;;;;;;5068128;28;20425;-67
2022/01/05 11:53:17;;;;;;;0.80;0.80;;;17.50;38.50;;;;;;5050282;28;20420;-67
2022/01/05 11:56:06;;;;;;;1.20;1.00;;;17.40;38.30;;;;;;5070279;28;20539;-67
2022/01/05 11:58:33;;;;;;;1.77;0.93;;;17.50;38.40;;;;;;5061880;28;20442;-67
2022/01/05 12:01:26;;;;;;;1.10;1.00;;;17.50;39.20;;;;;;5070130;28;20450;-67
2022/01/05 12:03:52;;;;;;;1.37;0.90;;;17.50;38.40;;;;;;5060014;28;20936;-67
2022/01/05 12:06:21;;;;;;;1.20;0.87;;;17.50;38.40;;;;;;5070688;28;20447;-67
2022/01/05 12:08:47;;;;;;;1.00;0.90;;;17.50;38.40;;;;;;5070315;28;20594;-67
2022/01/05 12:11:41;;;;;;;1.00;0.90;;;17.50;38.40;;;;;;5069627;28;20421;-67
2022/01/05 12:14:22;;;;;;;1.10;0.90;;;17.50;38.40;;;;;;5067768;28;20459;-67
2022/01/05 12:19:56;;;;;;;1.10;0.90;;;17.40;38.20;;;;;;5069081;28;20429;-67
2022/01/05 12:22:24;;;;;;;1.00;0.90;;;17.50;38.30;;;;;;5069109;28;20493;-67
2022/01/05 12:24:52;;;;;;;19.63;1.43;;;17.50;38.40;;;;;;5066781;28;20474;-67
2022/01/05 12:27:27;;;;;;;1.27;1.00;;;17.40;38.30;;;;;;5069662;28;20455;-67
2022/01/05 12:29:54;;;;;;;1.10;0.90;;;17.50;38.30;;;;;;5068878;28;20957;-67
2022/01/05 12:32:32;;;;;;;0.80;0.80;;;17.50;38.30;;;;;;5069991;28;20487;-67
2022/01/05 12:35:00;;;;;;;1.00;0.90;;;17.40;38.20;;;;;;5067612;28;20486;-67
2022/01/05 12:37:57;;;;;;;1.10;1.00;;;17.50;38.40;;;;;;5069452;28;20438;-67
2022/01/05 12:40:24;;;;;;;1.23;1.13;;;17.50;38.40;;;;;;5068221;28;20945;-67
2022/01/05 12:43:09;;;;;;;0.97;0.90;;;17.40;38.30;;;;;;5051997;28;21064;-67
2022/01/05 12:45:56;;;;;;;1.57;1.10;;;17.50;38.30;;;;;;5067201;28;20413;-67
2022/01/05 12:48:31;;;;;;;1.00;0.90;;;17.40;38.20;;;;;;5068832;28;20826;-67
2022/01/05 12:51:30;;;;;;;1.30;1.20;;;17.40;38.20;;;;;;5067134;28;20446;-67
2022/01/05 12:53:58;;;;;;;1.00;0.90;;;17.40;38.20;;;;;;5067808;28;20425;-67
2022/01/05 12:56:27;;;;;;;1.10;0.90;;;17.40;38.30;;;;;;5051505;28;20425;-67